EDT,Max TemperatureF,Mean TemperatureF,Min TemperatureF,Max Dew PointF,MeanDew PointF,Min DewpointF,Max Humidity, Mean Humidity, Min Humidity, Max Sea Level PressureIn, Mean Sea Level PressureIn, Min Sea Level PressureIn, Max VisibilityMiles, Mean VisibilityMiles, Min VisibilityMiles, Max Wind SpeedMPH, Mean Wind SpeedMPH, Max Gust SpeedMPH,PrecipitationIn, CloudCover, Events, WindDirDegrees
2011-10-1,71,60,49,49,39,31,77,45,26,30.03,29.92,29.84,10,10,10,18,6,28,0.00,0,,333
2011-10-2,70,56,42,48,43,39,93,68,37,30.08,30.03,29.98,10,10,10,16,3,21,0.00,0,,310
2011-10-3,74,59,43,49,41,34,93,57,25,30.17,30.12,30.08,10,10,10,12,2,15,0.00,0,,307
2011-10-4,78,62,46,54,48,44,93,66,35,30.26,30.20,30.16,10,10,10,10,3,21,0.00,0,Rain,24
2011-10-5,80,65,50,55,52,48,100,75,39,30.27,30.22,30.17,10,9,2,9,2,13,0.00,0,,52
2011-10-6,80,66,51,57,52,49,100,71,35,30.30,30.25,30.21,10,8,2,13,5,22,0.00,0,,57
2011-10-7,79,68,56,56,52,50,86,66,43,30.37,30.33,30.29,10,10,10,15,7,21,0.00,0,,50
2011-10-8,79,68,56,55,51,46,86,62,40,30.43,30.36,30.31,10,10,10,17,8,24,0.00,0,,51
2011-10-9,77,70,62,61,58,46,78,66,52,30.30,30.23,30.15,10,10,10,18,11,26,T,3,,53
2011-10-10,71,68,65,66,64,62,93,87,73,30.14,30.03,29.96,10,9,2,18,11,25,0.33,8,Rain,54
2011-10-11,68,65,62,66,63,60,100,93,81,29.95,29.90,29.86,10,6,1,13,7,17,0.17,8,Rain,45
2011-10-12,75,70,64,68,66,63,100,90,79,29.85,29.81,29.77,10,8,0,13,2,16,0.32,7,Fog-Rain,305
2011-10-13,80,70,60,67,64,58,100,85,54,29.79,29.74,29.64,10,8,4,16,6,21,0.12,6,Rain,235
2011-10-14,78,68,58,58,51,43,100,67,29,29.94,29.78,29.69,10,10,10,22,9,30,0.00,0,,254
2011-10-15,83,68,52,52,48,44,89,54,26,30.07,30.00,29.95,10,10,10,21,7,26,0.00,0,,258
2011-10-16,80,64,47,54,49,44,93,62,30,30.16,30.10,30.04,10,10,7,8,1,10,0.00,0,,178
2011-10-17,85,67,49,59,54,50,100,68,32,30.05,29.96,29.89,10,10,7,13,3,17,0.00,0,,230
2011-10-18,78,67,56,68,64,55,100,93,69,29.89,29.78,29.59,10,4,0,17,1,24,0.77,7,Fog-Rain,139
2011-10-19,79,65,50,70,63,40,97,86,57,29.70,29.47,29.37,10,7,2,28,10,35,0.00,7,Rain,249
2011-10-20,62,53,44,43,40,39,89,66,46,30.04,29.88,29.69,10,10,10,23,10,32,0.00,2,,253
2011-10-21,67,53,38,44,41,38,100,71,40,30.13,30.08,30.04,10,10,7,15,3,21,0.00,0,,267
2011-10-22,69,55,41,48,44,40,100,72,39,30.14,30.10,30.07,10,10,6,12,2,15,0.00,1,,41
2011-10-23,71,56,40,50,45,40,96,75,40,30.14,30.10,30.05,10,8,3,12,2,16,0.00,0,,67
2011-10-24,74,59,44,52,48,43,100,77,41,30.14,30.10,30.06,10,8,2,12,2,16,0.00,0,,345
2011-10-25,76,61,46,52,48,44,100,72,33,30.26,30.19,30.14,10,9,4,10,2,14,0.00,0,,70
2011-10-26,79,63,46,55,48,42,100,73,28,30.19,30.09,29.99,10,8,4,16,3,18,0.00,1,,250
2011-10-27,80,66,52,58,53,51,100,74,39,29.99,29.93,29.86,10,8,0,5,6,7,0.00,1,Fog,246
2011-10-28,71,61,51,56,52,46,96,76,61,30.00,29.96,29.91,10,10,5,15,7,22,0.00,5,,62
2011-10-29,61,53,44,46,42,32,93,73,44,30.17,29.99,29.91,10,9,2,16,8,24,0.01,5,Rain,2
2011-10-30,62,48,34,39,34,31,92,64,32,30.32,30.26,30.17,10,10,10,13,3,17,0.00,0,,70
2011-10-31,61,52,42,52,44,38,100,79,64,30.29,30.22,30.15,10,10,4,12,4,18,0.11,5,Rain,46